sensor_id;sensor_type;location;lat;lon;timestamp;P1;durP1;ratioP1;P2;durP2;ratioP2
14080;SDS011;7116;52.152;5.392;2022-12-07T00:02:32;8.43;;;4.72;;
14080;SDS011;7116;52.152;5.392;2022-12-07T00:05:00;9.70;;;4.32;;
14080;SDS011;7116;52.152;5.392;2022-12-07T00:07:43;9.63;;;4.75;;
14080;SDS011;7116;52.152;5.392;2022-12-07T00:22:52;8.05;;;3.80;;
14080;SDS011;7116;52.152;5.392;2022-12-07T00:25:37;9.18;;;4.70;;
14080;SDS011;7116;52.152;5.392;2022-12-07T00:33:56;8.73;;;4.57;;
14080;SDS011;7116;52.152;5.392;2022-12-07T00:36:42;11.43;;;3.90;;
14080;SDS011;7116;52.152;5.392;2022-12-07T00:39:07;9.07;;;4.10;;
14080;SDS011;7116;52.152;5.392;2022-12-07T00:41:33;7.72;;;4.40;;
14080;SDS011;7116;52.152;5.392;2022-12-07T00:44:21;8.75;;;4.10;;
14080;SDS011;7116;52.152;5.392;2022-12-07T00:59:37;10.85;;;4.47;;
14080;SDS011;7116;52.152;5.392;2022-12-07T01:02:30;6.88;;;3.70;;
14080;SDS011;7116;52.152;5.392;2022-12-07T01:05:18;6.53;;;3.85;;
14080;SDS011;7116;52.152;5.392;2022-12-07T01:23:32;8.43;;;3.95;;
14080;SDS011;7116;52.152;5.392;2022-12-07T01:26:01;8.20;;;3.88;;
14080;SDS011;7116;52.152;5.392;2022-12-07T01:28:26;5.78;;;3.50;;
14080;SDS011;7116;52.152;5.392;2022-12-07T01:30:59;8.63;;;3.87;;
14080;SDS011;7116;52.152;5.392;2022-12-07T01:33:35;8.52;;;3.70;;
14080;SDS011;7116;52.152;5.392;2022-12-07T01:45:44;6.95;;;4.25;;
14080;SDS011;7116;52.152;5.392;2022-12-07T01:51:35;7.93;;;3.87;;
14080;SDS011;7116;52.152;5.392;2022-12-07T01:54:24;7.28;;;3.60;;
14080;SDS011;7116;52.152;5.392;2022-12-07T01:57:13;5.93;;;3.15;;
14080;SDS011;7116;52.152;5.392;2022-12-07T02:12:10;6.05;;;3.20;;
14080;SDS011;7116;52.152;5.392;2022-12-07T02:18:16;6.57;;;3.92;;
14080;SDS011;7116;52.152;5.392;2022-12-07T02:29:48;7.82;;;3.67;;
14080;SDS011;7116;52.152;5.392;2022-12-07T02:32:25;9.20;;;3.53;;
14080;SDS011;7116;52.152;5.392;2022-12-07T02:34:55;9.47;;;3.70;;
14080;SDS011;7116;52.152;5.392;2022-12-07T02:37:34;4.18;;;3.35;;
14080;SDS011;7116;52.152;5.392;2022-12-07T02:40:09;9.95;;;4.10;;
14080;SDS011;7116;52.152;5.392;2022-12-07T02:42:40;8.40;;;3.38;;
14080;SDS011;7116;52.152;5.392;2022-12-07T02:45:07;7.65;;;3.35;;
14080;SDS011;7116;52.152;5.392;2022-12-07T02:47:33;9.43;;;3.63;;
14080;SDS011;7116;52.152;5.392;2022-12-07T02:50:23;6.95;;;3.15;;
14080;SDS011;7116;52.152;5.392;2022-12-07T02:52:54;9.57;;;3.75;;
14080;SDS011;7116;52.152;5.392;2022-12-07T02:55:40;7.85;;;3.20;;
14080;SDS011;7116;52.152;5.392;2022-12-07T02:58:11;9.20;;;3.40;;
14080;SDS011;7116;52.152;5.392;2022-12-07T03:06:36;4.70;;;3.28;;
14080;SDS011;7116;52.152;5.392;2022-12-07T03:36:51;5.90;;;3.13;;
14080;SDS011;7116;52.152;5.392;2022-12-07T03:39:39;5.90;;;3.25;;
14080;SDS011;7116;52.152;5.392;2022-12-07T03:45:41;6.90;;;3.10;;
14080;SDS011;7116;52.152;5.392;2022-12-07T03:50:50;11.48;;;3.90;;
14080;SDS011;7116;52.152;5.392;2022-12-07T03:53:29;4.50;;;3.00;;
14080;SDS011;7116;52.152;5.392;2022-12-07T03:55:59;7.18;;;3.80;;
14080;SDS011;7116;52.152;5.392;2022-12-07T03:58:28;6.57;;;2.97;;
14080;SDS011;7116;52.152;5.392;2022-12-07T04:07:07;8.38;;;2.55;;
14080;SDS011;7116;52.152;5.392;2022-12-07T04:09:44;8.13;;;2.85;;
14080;SDS011;7116;52.152;5.392;2022-12-07T04:12:47;6.90;;;2.90;;
14080;SDS011;7116;52.152;5.392;2022-12-07T04:18:44;5.65;;;2.83;;
14080;SDS011;7116;52.152;5.392;2022-12-07T04:21:22;14.80;;;12.82;;
14080;SDS011;7116;52.152;5.392;2022-12-07T04:24:05;6.32;;;3.00;;
14080;SDS011;7116;52.152;5.392;2022-12-07T04:27:12;6.40;;;2.60;;
14080;SDS011;7116;52.152;5.392;2022-12-07T04:29:59;5.32;;;2.80;;
14080;SDS011;7116;52.152;5.392;2022-12-07T04:35:39;4.72;;;2.85;;
14080;SDS011;7116;52.152;5.392;2022-12-07T04:38:27;6.88;;;2.75;;
14080;SDS011;7116;52.152;5.392;2022-12-07T04:44:26;7.75;;;3.28;;
14080;SDS011;7116;52.152;5.392;2022-12-07T04:46:59;5.53;;;2.95;;
14080;SDS011;7116;52.152;5.392;2022-12-07T04:58:38;5.55;;;2.67;;
14080;SDS011;7116;52.152;5.392;2022-12-07T05:01:22;4.97;;;2.72;;
14080;SDS011;7116;52.152;5.392;2022-12-07T05:04:16;7.55;;;2.97;;
14080;SDS011;7116;52.152;5.392;2022-12-07T05:06:43;6.47;;;3.13;;
14080;SDS011;7116;52.152;5.392;2022-12-07T05:15:47;4.93;;;2.78;;
14080;SDS011;7116;52.152;5.392;2022-12-07T05:30:40;5.90;;;3.35;;
14080;SDS011;7116;52.152;5.392;2022-12-07T05:36:31;3.83;;;2.75;;
14080;SDS011;7116;52.152;5.392;2022-12-07T05:39:16;6.17;;;2.80;;
14080;SDS011;7116;52.152;5.392;2022-12-07T05:42:03;6.20;;;2.17;;
14080;SDS011;7116;52.152;5.392;2022-12-07T05:44:43;4.20;;;2.22;;
14080;SDS011;7116;52.152;5.392;2022-12-07T05:47:12;8.43;;;3.05;;
14080;SDS011;7116;52.152;5.392;2022-12-07T05:49:38;8.65;;;2.60;;
14080;SDS011;7116;52.152;5.392;2022-12-07T05:58:09;4.67;;;3.00;;
14080;SDS011;7116;52.152;5.392;2022-12-07T06:00:54;7.20;;;2.83;;
14080;SDS011;7116;52.152;5.392;2022-12-07T06:03:22;9.40;;;3.28;;
14080;SDS011;7116;52.152;5.392;2022-12-07T06:12:17;7.20;;;2.42;;
14080;SDS011;7116;52.152;5.392;2022-12-07T06:15:13;7.78;;;2.90;;
14080;SDS011;7116;52.152;5.392;2022-12-07T06:17:59;9.65;;;2.92;;
14080;SDS011;7116;52.152;5.392;2022-12-07T06:20:24;5.13;;;2.78;;
14080;SDS011;7116;52.152;5.392;2022-12-07T06:22:51;5.13;;;2.10;;
14080;SDS011;7116;52.152;5.392;2022-12-07T06:25:17;8.73;;;2.83;;
14080;SDS011;7116;52.152;5.392;2022-12-07T06:27:49;5.63;;;2.92;;
14080;SDS011;7116;52.152;5.392;2022-12-07T06:30:15;9.20;;;2.93;;
14080;SDS011;7116;52.152;5.392;2022-12-07T06:32:40;5.40;;;3.10;;
14080;SDS011;7116;52.152;5.392;2022-12-07T06:38:32;9.68;;;2.97;;
14080;SDS011;7116;52.152;5.392;2022-12-07T06:41:35;8.57;;;2.85;;
14080;SDS011;7116;52.152;5.392;2022-12-07T06:47:00;11.02;;;3.78;;
14080;SDS011;7116;52.152;5.392;2022-12-07T06:49:48;14.13;;;3.60;;
14080;SDS011;7116;52.152;5.392;2022-12-07T06:52:25;6.82;;;2.88;;
14080;SDS011;7116;52.152;5.392;2022-12-07T06:55:00;6.63;;;3.20;;
14080;SDS011;7116;52.152;5.392;2022-12-07T06:57:43;4.87;;;2.97;;
14080;SDS011;7116;52.152;5.392;2022-12-07T07:00:27;8.07;;;2.83;;
14080;SDS011;7116;52.152;5.392;2022-12-07T07:03:22;12.48;;;3.13;;
14080;SDS011;7116;52.152;5.392;2022-12-07T07:05:47;7.77;;;3.70;;
14080;SDS011;7116;52.152;5.392;2022-12-07T07:14:31;7.93;;;3.10;;
14080;SDS011;7116;52.152;5.392;2022-12-07T07:17:09;6.65;;;3.38;;
14080;SDS011;7116;52.152;5.392;2022-12-07T07:20:17;8.23;;;3.55;;
14080;SDS011;7116;52.152;5.392;2022-12-07T07:26:23;8.55;;;2.97;;
14080;SDS011;7116;52.152;5.392;2022-12-07T07:29:17;6.25;;;2.92;;
14080;SDS011;7116;52.152;5.392;2022-12-07T07:31:59;8.48;;;3.63;;
14080;SDS011;7116;52.152;5.392;2022-12-07T07:34:42;9.15;;;3.38;;
14080;SDS011;7116;52.152;5.392;2022-12-07T07:37:07;5.57;;;3.30;;
14080;SDS011;7116;52.152;5.392;2022-12-07T07:42:38;6.50;;;3.47;;
14080;SDS011;7116;52.152;5.392;2022-12-07T07:45:08;8.52;;;3.15;;
14080;SDS011;7116;52.152;5.392;2022-12-07T07:47:36;9.00;;;3.47;;
14080;SDS011;7116;52.152;5.392;2022-12-07T07:50:04;10.85;;;4.00;;
14080;SDS011;7116;52.152;5.392;2022-12-07T07:58:46;8.60;;;3.58;;
14080;SDS011;7116;52.152;5.392;2022-12-07T08:01:14;7.22;;;3.20;;
14080;SDS011;7116;52.152;5.392;2022-12-07T08:03:41;9.40;;;3.75;;
14080;SDS011;7116;52.152;5.392;2022-12-07T08:06:06;11.13;;;3.53;;
14080;SDS011;7116;52.152;5.392;2022-12-07T08:08:32;5.70;;;3.60;;
14080;SDS011;7116;52.152;5.392;2022-12-07T08:10:57;7.77;;;3.47;;
14080;SDS011;7116;52.152;5.392;2022-12-07T08:13:25;7.63;;;3.17;;
14080;SDS011;7116;52.152;5.392;2022-12-07T08:15:50;9.67;;;3.83;;
14080;SDS011;7116;52.152;5.392;2022-12-07T08:18:15;12.73;;;3.03;;
14080;SDS011;7116;52.152;5.392;2022-12-07T08:20:41;8.57;;;3.70;;
14080;SDS011;7116;52.152;5.392;2022-12-07T08:23:07;7.80;;;3.30;;
14080;SDS011;7116;52.152;5.392;2022-12-07T08:25:32;9.63;;;3.20;;
14080;SDS011;7116;52.152;5.392;2022-12-07T08:27:58;15.38;;;3.75;;
14080;SDS011;7116;52.152;5.392;2022-12-07T08:30:23;9.77;;;3.20;;
14080;SDS011;7116;52.152;5.392;2022-12-07T08:32:49;9.03;;;2.70;;
14080;SDS011;7116;52.152;5.392;2022-12-07T08:35:14;8.77;;;3.15;;
14080;SDS011;7116;52.152;5.392;2022-12-07T08:37:48;9.65;;;3.20;;
14080;SDS011;7116;52.152;5.392;2022-12-07T08:40:19;5.95;;;2.97;;
14080;SDS011;7116;52.152;5.392;2022-12-07T08:42:49;8.13;;;2.95;;
14080;SDS011;7116;52.152;5.392;2022-12-07T08:48:08;8.23;;;3.00;;
14080;SDS011;7116;52.152;5.392;2022-12-07T08:53:51;4.40;;;2.43;;
14080;SDS011;7116;52.152;5.392;2022-12-07T08:56:34;6.18;;;3.15;;
14080;SDS011;7116;52.152;5.392;2022-12-07T09:05:38;4.32;;;2.45;;
14080;SDS011;7116;52.152;5.392;2022-12-07T09:08:08;8.15;;;3.25;;
14080;SDS011;7116;52.152;5.392;2022-12-07T09:10:36;12.32;;;3.58;;
14080;SDS011;7116;52.152;5.392;2022-12-07T09:13:04;6.00;;;3.10;;
14080;SDS011;7116;52.152;5.392;2022-12-07T09:15:40;6.18;;;3.30;;
14080;SDS011;7116;52.152;5.392;2022-12-07T09:18:28;8.60;;;3.85;;
14080;SDS011;7116;52.152;5.392;2022-12-07T09:24:17;7.05;;;2.58;;
14080;SDS011;7116;52.152;5.392;2022-12-07T09:26:42;11.53;;;3.17;;
14080;SDS011;7116;52.152;5.392;2022-12-07T09:29:12;7.53;;;2.75;;
14080;SDS011;7116;52.152;5.392;2022-12-07T09:31:43;5.90;;;2.97;;
14080;SDS011;7116;52.152;5.392;2022-12-07T09:34:08;6.77;;;3.17;;
14080;SDS011;7116;52.152;5.392;2022-12-07T09:36:36;10.23;;;3.30;;
14080;SDS011;7116;52.152;5.392;2022-12-07T09:39:01;5.32;;;2.63;;
14080;SDS011;7116;52.152;5.392;2022-12-07T09:41:27;7.15;;;3.15;;
14080;SDS011;7116;52.152;5.392;2022-12-07T09:43:57;9.02;;;2.80;;
14080;SDS011;7116;52.152;5.392;2022-12-07T09:46:27;5.85;;;2.97;;
14080;SDS011;7116;52.152;5.392;2022-12-07T09:48:55;5.77;;;2.83;;
14080;SDS011;7116;52.152;5.392;2022-12-07T09:51:21;6.22;;;2.75;;
14080;SDS011;7116;52.152;5.392;2022-12-07T09:53:50;7.68;;;2.75;;
14080;SDS011;7116;52.152;5.392;2022-12-07T09:56:16;5.18;;;2.50;;
14080;SDS011;7116;52.152;5.392;2022-12-07T09:58:42;10.50;;;3.60;;
14080;SDS011;7116;52.152;5.392;2022-12-07T10:03:33;5.17;;;2.70;;
14080;SDS011;7116;52.152;5.392;2022-12-07T10:05:59;7.35;;;2.95;;
14080;SDS011;7116;52.152;5.392;2022-12-07T10:08:24;7.35;;;3.05;;
14080;SDS011;7116;52.152;5.392;2022-12-07T10:10:54;7.37;;;3.27;;
14080;SDS011;7116;52.152;5.392;2022-12-07T10:16:06;5.78;;;3.20;;
14080;SDS011;7116;52.152;5.392;2022-12-07T10:18:47;5.65;;;3.05;;
14080;SDS011;7116;52.152;5.392;2022-12-07T10:21:16;5.40;;;2.37;;
14080;SDS011;7116;52.152;5.392;2022-12-07T10:24:00;8.98;;;2.58;;
14080;SDS011;7116;52.152;5.392;2022-12-07T10:26:34;8.50;;;3.00;;
14080;SDS011;7116;52.152;5.392;2022-12-07T10:29:12;8.45;;;2.60;;
14080;SDS011;7116;52.152;5.392;2022-12-07T10:31:39;5.97;;;3.00;;
14080;SDS011;7116;52.152;5.392;2022-12-07T10:36:53;10.77;;;2.90;;
14080;SDS011;7116;52.152;5.392;2022-12-07T10:39:22;7.00;;;3.17;;
14080;SDS011;7116;52.152;5.392;2022-12-07T10:41:52;6.03;;;2.30;;
14080;SDS011;7116;52.152;5.392;2022-12-07T10:44:21;7.38;;;2.20;;
14080;SDS011;7116;52.152;5.392;2022-12-07T10:46:50;8.63;;;3.33;;
14080;SDS011;7116;52.152;5.392;2022-12-07T10:52:01;4.60;;;2.70;;
14080;SDS011;7116;52.152;5.392;2022-12-07T10:54:39;6.20;;;2.27;;
14080;SDS011;7116;52.152;5.392;2022-12-07T10:59:44;6.43;;;2.50;;
14080;SDS011;7116;52.152;5.392;2022-12-07T11:18:13;4.63;;;2.90;;
14080;SDS011;7116;52.152;5.392;2022-12-07T11:20:44;5.23;;;2.37;;
14080;SDS011;7116;52.152;5.392;2022-12-07T11:23:24;3.83;;;2.83;;
14080;SDS011;7116;52.152;5.392;2022-12-07T11:26:42;6.72;;;2.85;;
14080;SDS011;7116;52.152;5.392;2022-12-07T11:36:35;8.23;;;3.00;;
14080;SDS011;7116;52.152;5.392;2022-12-07T11:39:03;9.48;;;2.95;;
14080;SDS011;7116;52.152;5.392;2022-12-07T11:41:34;3.97;;;2.03;;
14080;SDS011;7116;52.152;5.392;2022-12-07T11:44:06;8.55;;;2.30;;
14080;SDS011;7116;52.152;5.392;2022-12-07T11:46:51;7.82;;;2.58;;
14080;SDS011;7116;52.152;5.392;2022-12-07T11:49:22;6.60;;;2.22;;
14080;SDS011;7116;52.152;5.392;2022-12-07T11:51:49;5.68;;;2.22;;
14080;SDS011;7116;52.152;5.392;2022-12-07T11:56:43;5.57;;;2.33;;
14080;SDS011;7116;52.152;5.392;2022-12-07T12:02:18;4.50;;;1.98;;
14080;SDS011;7116;52.152;5.392;2022-12-07T12:08:00;5.50;;;2.00;;
14080;SDS011;7116;52.152;5.392;2022-12-07T12:18:28;5.55;;;2.60;;
14080;SDS011;7116;52.152;5.392;2022-12-07T12:24:30;4.30;;;1.80;;
14080;SDS011;7116;52.152;5.392;2022-12-07T12:50:15;6.87;;;2.37;;
14080;SDS011;7116;52.152;5.392;2022-12-07T12:52:52;4.90;;;2.15;;
14080;SDS011;7116;52.152;5.392;2022-12-07T13:03:40;4.30;;;1.83;;
14080;SDS011;7116;52.152;5.392;2022-12-07T13:23:37;4.18;;;2.50;;
14080;SDS011;7116;52.152;5.392;2022-12-07T13:28:32;4.50;;;2.57;;
14080;SDS011;7116;52.152;5.392;2022-12-07T13:33:45;4.00;;;2.53;;
14080;SDS011;7116;52.152;5.392;2022-12-07T13:36:23;3.10;;;2.10;;
14080;SDS011;7116;52.152;5.392;2022-12-07T13:38:50;4.15;;;2.75;;
14080;SDS011;7116;52.152;5.392;2022-12-07T13:41:17;4.15;;;2.70;;
14080;SDS011;7116;52.152;5.392;2022-12-07T13:43:48;5.15;;;2.55;;
14080;SDS011;7116;52.152;5.392;2022-12-07T13:46:13;3.67;;;2.90;;
14080;SDS011;7116;52.152;5.392;2022-12-07T13:48:48;4.10;;;2.45;;
14080;SDS011;7116;52.152;5.392;2022-12-07T13:51:24;5.88;;;3.15;;
14080;SDS011;7116;52.152;5.392;2022-12-07T13:53:51;4.43;;;2.50;;
14080;SDS011;7116;52.152;5.392;2022-12-07T13:56:16;4.22;;;2.60;;
14080;SDS011;7116;52.152;5.392;2022-12-07T13:58:41;6.70;;;3.17;;
14080;SDS011;7116;52.152;5.392;2022-12-07T14:01:07;6.43;;;3.00;;
14080;SDS011;7116;52.152;5.392;2022-12-07T14:03:33;4.03;;;2.20;;
14080;SDS011;7116;52.152;5.392;2022-12-07T14:06:16;7.10;;;3.00;;
14080;SDS011;7116;52.152;5.392;2022-12-07T14:08:42;7.05;;;2.80;;
14080;SDS011;7116;52.152;5.392;2022-12-07T14:11:09;15.30;;;3.50;;
14080;SDS011;7116;52.152;5.392;2022-12-07T14:13:38;8.52;;;3.10;;
14080;SDS011;7116;52.152;5.392;2022-12-07T14:16:16;8.20;;;2.65;;
14080;SDS011;7116;52.152;5.392;2022-12-07T14:18:42;6.10;;;3.20;;
14080;SDS011;7116;52.152;5.392;2022-12-07T14:21:18;5.80;;;2.40;;
14080;SDS011;7116;52.152;5.392;2022-12-07T14:23:43;6.13;;;2.85;;
14080;SDS011;7116;52.152;5.392;2022-12-07T14:26:12;6.25;;;2.90;;
14080;SDS011;7116;52.152;5.392;2022-12-07T14:28:38;8.23;;;3.42;;
14080;SDS011;7116;52.152;5.392;2022-12-07T14:31:07;8.55;;;3.10;;
14080;SDS011;7116;52.152;5.392;2022-12-07T14:33:33;5.50;;;3.50;;
14080;SDS011;7116;52.152;5.392;2022-12-07T14:35:58;5.90;;;3.20;;
14080;SDS011;7116;52.152;5.392;2022-12-07T14:38:24;12.27;;;3.80;;
14080;SDS011;7116;52.152;5.392;2022-12-07T14:40:50;8.07;;;4.00;;
14080;SDS011;7116;52.152;5.392;2022-12-07T14:43:16;11.27;;;4.22;;
14080;SDS011;7116;52.152;5.392;2022-12-07T14:45:42;7.70;;;3.90;;
14080;SDS011;7116;52.152;5.392;2022-12-07T14:48:10;4.57;;;2.90;;
14080;SDS011;7116;52.152;5.392;2022-12-07T14:50:41;7.15;;;2.83;;
14080;SDS011;7116;52.152;5.392;2022-12-07T14:53:14;5.32;;;3.10;;
14080;SDS011;7116;52.152;5.392;2022-12-07T14:55:40;8.35;;;3.05;;
14080;SDS011;7116;52.152;5.392;2022-12-07T14:58:05;6.73;;;2.40;;
14080;SDS011;7116;52.152;5.392;2022-12-07T15:00:30;6.10;;;2.70;;
14080;SDS011;7116;52.152;5.392;2022-12-07T15:02:56;3.43;;;2.60;;
14080;SDS011;7116;52.152;5.392;2022-12-07T15:05:21;4.23;;;2.60;;
14080;SDS011;7116;52.152;5.392;2022-12-07T15:07:47;3.75;;;2.42;;
14080;SDS011;7116;52.152;5.392;2022-12-07T15:10:14;4.93;;;2.65;;
14080;SDS011;7116;52.152;5.392;2022-12-07T15:12:40;4.55;;;2.50;;
14080;SDS011;7116;52.152;5.392;2022-12-07T15:15:05;5.50;;;2.77;;
14080;SDS011;7116;52.152;5.392;2022-12-07T15:17:30;4.73;;;2.70;;
14080;SDS011;7116;52.152;5.392;2022-12-07T15:19:56;4.67;;;2.63;;
14080;SDS011;7116;52.152;5.392;2022-12-07T15:22:21;4.90;;;2.93;;
14080;SDS011;7116;52.152;5.392;2022-12-07T15:24:46;4.47;;;2.77;;
14080;SDS011;7116;52.152;5.392;2022-12-07T15:27:11;4.70;;;2.60;;
14080;SDS011;7116;52.152;5.392;2022-12-07T15:29:37;4.97;;;2.70;;
14080;SDS011;7116;52.152;5.392;2022-12-07T15:32:02;7.50;;;2.70;;
14080;SDS011;7116;52.152;5.392;2022-12-07T15:34:27;3.70;;;2.90;;
14080;SDS011;7116;52.152;5.392;2022-12-07T15:36:53;6.68;;;2.85;;
14080;SDS011;7116;52.152;5.392;2022-12-07T15:39:18;5.77;;;3.40;;
14080;SDS011;7116;52.152;5.392;2022-12-07T15:41:44;9.43;;;4.40;;
14080;SDS011;7116;52.152;5.392;2022-12-07T15:44:12;14.50;;;5.22;;
14080;SDS011;7116;52.152;5.392;2022-12-07T15:46:56;14.65;;;6.78;;
14080;SDS011;7116;52.152;5.392;2022-12-07T15:49:21;13.43;;;6.70;;
14080;SDS011;7116;52.152;5.392;2022-12-07T15:51:46;13.03;;;5.37;;
14080;SDS011;7116;52.152;5.392;2022-12-07T15:54:16;8.87;;;5.20;;
14080;SDS011;7116;52.152;5.392;2022-12-07T15:56:42;9.88;;;5.43;;
14080;SDS011;7116;52.152;5.392;2022-12-07T15:59:07;8.87;;;4.00;;
14080;SDS011;7116;52.152;5.392;2022-12-07T16:01:33;6.20;;;4.10;;
14080;SDS011;7116;52.152;5.392;2022-12-07T16:03:58;9.13;;;4.27;;
14080;SDS011;7116;52.152;5.392;2022-12-07T16:06:24;11.48;;;4.70;;
14080;SDS011;7116;52.152;5.392;2022-12-07T16:08:49;14.83;;;6.80;;
14080;SDS011;7116;52.152;5.392;2022-12-07T16:11:14;13.40;;;5.63;;
14080;SDS011;7116;52.152;5.392;2022-12-07T16:13:39;13.47;;;5.83;;
14080;SDS011;7116;52.152;5.392;2022-12-07T16:16:06;9.77;;;4.13;;
14080;SDS011;7116;52.152;5.392;2022-12-07T16:18:32;8.50;;;4.10;;
14080;SDS011;7116;52.152;5.392;2022-12-07T16:20:57;7.03;;;4.30;;
14080;SDS011;7116;52.152;5.392;2022-12-07T16:23:23;7.13;;;4.20;;
14080;SDS011;7116;52.152;5.392;2022-12-07T16:25:48;8.73;;;4.50;;
14080;SDS011;7116;52.152;5.392;2022-12-07T16:28:13;13.70;;;6.23;;
14080;SDS011;7116;52.152;5.392;2022-12-07T16:30:38;16.13;;;7.13;;
14080;SDS011;7116;52.152;5.392;2022-12-07T16:33:03;9.97;;;4.43;;
14080;SDS011;7116;52.152;5.392;2022-12-07T16:35:30;7.53;;;4.23;;
14080;SDS011;7116;52.152;5.392;2022-12-07T16:37:55;6.70;;;3.80;;
14080;SDS011;7116;52.152;5.392;2022-12-07T16:40:20;7.70;;;3.83;;
14080;SDS011;7116;52.152;5.392;2022-12-07T16:42:45;14.40;;;4.40;;
14080;SDS011;7116;52.152;5.392;2022-12-07T16:45:10;11.07;;;6.10;;
14080;SDS011;7116;52.152;5.392;2022-12-07T16:47:39;18.07;;;6.97;;
14080;SDS011;7116;52.152;5.392;2022-12-07T16:50:04;14.23;;;6.32;;
14080;SDS011;7116;52.152;5.392;2022-12-07T16:52:30;15.17;;;7.40;;
14080;SDS011;7116;52.152;5.392;2022-12-07T16:54:55;14.53;;;6.90;;
14080;SDS011;7116;52.152;5.392;2022-12-07T16:57:20;11.70;;;5.57;;
14080;SDS011;7116;52.152;5.392;2022-12-07T16:59:45;11.13;;;5.67;;
14080;SDS011;7116;52.152;5.392;2022-12-07T17:02:11;11.93;;;5.30;;
14080;SDS011;7116;52.152;5.392;2022-12-07T17:04:37;10.85;;;5.15;;
14080;SDS011;7116;52.152;5.392;2022-12-07T17:07:04;9.27;;;5.45;;
14080;SDS011;7116;52.152;5.392;2022-12-07T17:09:29;11.43;;;6.93;;
14080;SDS011;7116;52.152;5.392;2022-12-07T17:11:55;11.03;;;6.37;;
14080;SDS011;7116;52.152;5.392;2022-12-07T17:14:20;11.60;;;5.53;;
14080;SDS011;7116;52.152;5.392;2022-12-07T17:17:04;12.60;;;6.28;;
14080;SDS011;7116;52.152;5.392;2022-12-07T17:19:29;15.03;;;6.27;;
14080;SDS011;7116;52.152;5.392;2022-12-07T17:21:54;13.00;;;6.77;;
14080;SDS011;7116;52.152;5.392;2022-12-07T17:24:19;10.40;;;5.80;;
14080;SDS011;7116;52.152;5.392;2022-12-07T17:26:45;12.13;;;6.00;;
14080;SDS011;7116;52.152;5.392;2022-12-07T17:29:11;11.07;;;5.20;;
14080;SDS011;7116;52.152;5.392;2022-12-07T17:31:37;7.03;;;3.72;;
14080;SDS011;7116;52.152;5.392;2022-12-07T17:34:02;7.33;;;3.80;;
14080;SDS011;7116;52.152;5.392;2022-12-07T17:36:29;6.65;;;3.88;;
14080;SDS011;7116;52.152;5.392;2022-12-07T17:38:55;6.45;;;3.60;;
14080;SDS011;7116;52.152;5.392;2022-12-07T17:41:22;8.80;;;4.10;;
14080;SDS011;7116;52.152;5.392;2022-12-07T17:44:07;7.55;;;4.00;;
14080;SDS011;7116;52.152;5.392;2022-12-07T17:46:33;7.40;;;4.15;;
14080;SDS011;7116;52.152;5.392;2022-12-07T17:48:58;12.07;;;3.90;;
14080;SDS011;7116;52.152;5.392;2022-12-07T17:51:24;7.27;;;3.50;;
14080;SDS011;7116;52.152;5.392;2022-12-07T17:54:07;8.35;;;3.53;;
14080;SDS011;7116;52.152;5.392;2022-12-07T17:56:33;5.38;;;3.10;;
14080;SDS011;7116;52.152;5.392;2022-12-07T17:58:58;5.07;;;2.97;;
14080;SDS011;7116;52.152;5.392;2022-12-07T18:01:24;5.93;;;3.17;;
14080;SDS011;7116;52.152;5.392;2022-12-07T18:03:49;4.70;;;2.73;;
14080;SDS011;7116;52.152;5.392;2022-12-07T18:06:14;7.07;;;3.00;;
14080;SDS011;7116;52.152;5.392;2022-12-07T18:08:39;6.23;;;3.27;;
14080;SDS011;7116;52.152;5.392;2022-12-07T18:11:05;5.20;;;3.70;;
14080;SDS011;7116;52.152;5.392;2022-12-07T18:13:31;4.50;;;3.70;;
14080;SDS011;7116;52.152;5.392;2022-12-07T18:16:00;7.32;;;4.70;;
14080;SDS011;7116;52.152;5.392;2022-12-07T18:18:25;7.53;;;4.80;;
14080;SDS011;7116;52.152;5.392;2022-12-07T18:20:50;11.13;;;7.23;;
14080;SDS011;7116;52.152;5.392;2022-12-07T18:23:15;12.67;;;8.33;;
14080;SDS011;7116;52.152;5.392;2022-12-07T18:25:45;11.70;;;6.97;;
14080;SDS011;7116;52.152;5.392;2022-12-07T18:28:10;11.40;;;6.18;;
14080;SDS011;7116;52.152;5.392;2022-12-07T18:30:36;13.05;;;6.82;;
14080;SDS011;7116;52.152;5.392;2022-12-07T18:33:01;11.63;;;6.50;;
14080;SDS011;7116;52.152;5.392;2022-12-07T18:35:26;11.77;;;7.13;;
14080;SDS011;7116;52.152;5.392;2022-12-07T18:37:51;11.80;;;6.03;;
14080;SDS011;7116;52.152;5.392;2022-12-07T18:40:16;10.23;;;6.20;;
14080;SDS011;7116;52.152;5.392;2022-12-07T18:42:42;14.00;;;6.43;;
14080;SDS011;7116;52.152;5.392;2022-12-07T18:45:07;9.40;;;5.37;;
14080;SDS011;7116;52.152;5.392;2022-12-07T18:47:32;8.63;;;5.43;;
14080;SDS011;7116;52.152;5.392;2022-12-07T18:49:58;10.23;;;6.40;;
14080;SDS011;7116;52.152;5.392;2022-12-07T18:52:23;11.93;;;6.00;;
14080;SDS011;7116;52.152;5.392;2022-12-07T18:54:48;8.20;;;5.50;;
14080;SDS011;7116;52.152;5.392;2022-12-07T18:57:13;11.88;;;5.65;;
14080;SDS011;7116;52.152;5.392;2022-12-07T18:59:39;11.33;;;5.30;;
14080;SDS011;7116;52.152;5.392;2022-12-07T19:02:10;11.63;;;6.35;;
14080;SDS011;7116;52.152;5.392;2022-12-07T19:04:35;11.30;;;5.57;;
14080;SDS011;7116;52.152;5.392;2022-12-07T19:07:01;10.80;;;5.03;;
14080;SDS011;7116;52.152;5.392;2022-12-07T19:09:26;8.17;;;4.93;;
14080;SDS011;7116;52.152;5.392;2022-12-07T19:11:51;7.07;;;5.33;;
14080;SDS011;7116;52.152;5.392;2022-12-07T19:14:27;9.97;;;5.17;;
14080;SDS011;7116;52.152;5.392;2022-12-07T19:16:54;13.18;;;5.43;;
14080;SDS011;7116;52.152;5.392;2022-12-07T19:19:20;8.50;;;5.75;;
14080;SDS011;7116;52.152;5.392;2022-12-07T19:21:46;9.35;;;5.43;;
14080;SDS011;7116;52.152;5.392;2022-12-07T19:24:11;7.88;;;5.43;;
14080;SDS011;7116;52.152;5.392;2022-12-07T19:26:37;9.90;;;5.33;;
14080;SDS011;7116;52.152;5.392;2022-12-07T19:29:02;10.63;;;6.27;;
14080;SDS011;7116;52.152;5.392;2022-12-07T19:31:27;15.13;;;8.73;;
14080;SDS011;7116;52.152;5.392;2022-12-07T19:33:53;13.47;;;7.97;;
14080;SDS011;7116;52.152;5.392;2022-12-07T19:36:18;15.77;;;7.13;;
14080;SDS011;7116;52.152;5.392;2022-12-07T19:38:43;12.77;;;6.63;;
14080;SDS011;7116;52.152;5.392;2022-12-07T19:41:09;16.00;;;8.03;;
14080;SDS011;7116;52.152;5.392;2022-12-07T19:43:54;15.15;;;9.07;;
14080;SDS011;7116;52.152;5.392;2022-12-07T19:46:19;12.00;;;7.90;;
14080;SDS011;7116;52.152;5.392;2022-12-07T19:48:44;12.33;;;7.70;;
14080;SDS011;7116;52.152;5.392;2022-12-07T19:51:09;14.27;;;7.27;;
14080;SDS011;7116;52.152;5.392;2022-12-07T19:53:35;11.57;;;7.23;;
14080;SDS011;7116;52.152;5.392;2022-12-07T19:56:00;13.90;;;7.83;;
14080;SDS011;7116;52.152;5.392;2022-12-07T19:58:25;12.70;;;7.13;;
14080;SDS011;7116;52.152;5.392;2022-12-07T20:00:50;12.27;;;7.90;;
14080;SDS011;7116;52.152;5.392;2022-12-07T20:03:15;11.43;;;6.53;;
14080;SDS011;7116;52.152;5.392;2022-12-07T20:05:41;13.07;;;6.77;;
14080;SDS011;7116;52.152;5.392;2022-12-07T20:08:06;13.50;;;6.10;;
14080;SDS011;7116;52.152;5.392;2022-12-07T20:10:37;10.65;;;5.72;;
14080;SDS011;7116;52.152;5.392;2022-12-07T20:13:02;8.75;;;4.95;;
14080;SDS011;7116;52.152;5.392;2022-12-07T20:15:46;7.18;;;5.00;;
14080;SDS011;7116;52.152;5.392;2022-12-07T20:18:11;8.30;;;4.43;;
14080;SDS011;7116;52.152;5.392;2022-12-07T20:20:36;8.00;;;4.50;;
14080;SDS011;7116;52.152;5.392;2022-12-07T20:23:01;7.37;;;4.73;;
14080;SDS011;7116;52.152;5.392;2022-12-07T20:25:34;12.13;;;5.18;;
14080;SDS011;7116;52.152;5.392;2022-12-07T20:28:02;10.27;;;4.80;;
14080;SDS011;7116;52.152;5.392;2022-12-07T20:30:37;9.30;;;5.55;;
14080;SDS011;7116;52.152;5.392;2022-12-07T20:33:17;11.07;;;5.78;;
14080;SDS011;7116;52.152;5.392;2022-12-07T20:35:42;12.30;;;6.32;;
14080;SDS011;7116;52.152;5.392;2022-12-07T20:38:08;14.73;;;7.03;;
14080;SDS011;7116;52.152;5.392;2022-12-07T20:40:33;9.60;;;5.85;;
14080;SDS011;7116;52.152;5.392;2022-12-07T20:42:59;17.52;;;9.50;;
14080;SDS011;7116;52.152;5.392;2022-12-07T20:45:34;19.00;;;10.45;;
14080;SDS011;7116;52.152;5.392;2022-12-07T20:48:35;15.40;;;8.88;;
14080;SDS011;7116;52.152;5.392;2022-12-07T20:51:03;18.67;;;9.52;;
14080;SDS011;7116;52.152;5.392;2022-12-07T20:53:56;12.82;;;8.50;;
14080;SDS011;7116;52.152;5.392;2022-12-07T20:56:50;17.85;;;8.52;;